Time;durP1;ratioP1;P1;durP2;ratioP2;P2;SDS_P1;SDS_P2;PMS_P1;PMS_P2;Temp;Humidity;BMP_temperature;BMP_pressure;BME280_temperature;BME280_humidity;BME280_pressure;Samples;Min_cycle;Max_cycle;Signal;HPM_P1;HPM_P2
2023/06/03 00:00:08;;;;;;;11.63;7.10;;;12.80;99.90;;;;;;5132112;27;20197;-66
2023/06/03 00:02:34;;;;;;;12.40;7.27;;;12.80;99.90;;;;;;5132120;27;20266;-66
2023/06/03 00:05:01;;;;;;;13.47;6.80;;;12.80;99.90;;;;;;5132014;27;20858;-66
2023/06/03 00:07:30;;;;;;;9.45;6.90;;;12.80;99.90;;;;;;5131771;27;20833;-66
2023/06/03 00:09:55;;;;;;;12.77;7.23;;;12.70;99.90;;;;;;5131884;27;20411;-65
2023/06/03 00:12:21;;;;;;;14.70;6.60;;;12.80;99.90;;;;;;5131824;27;20424;-65
2023/06/03 00:14:47;;;;;;;16.27;7.30;;;12.60;99.90;;;;;;5131923;27;20280;-66
2023/06/03 00:17:12;;;;;;;14.63;7.83;;;12.50;99.90;;;;;;5131653;27;20181;-66
2023/06/03 00:19:42;;;;;;;11.47;6.90;;;12.50;99.90;;;;;;5131647;27;20418;-66
2023/06/03 00:22:08;;;;;;;15.90;7.63;;;12.30;99.90;;;;;;5131858;27;20200;-64
2023/06/03 00:24:34;;;;;;;8.00;6.33;;;12.20;99.90;;;;;;5131698;27;20436;-66
2023/06/03 00:27:00;;;;;;;9.97;6.63;;;12.20;99.90;;;;;;5131983;27;21136;-65
2023/06/03 00:29:26;;;;;;;10.20;7.27;;;12.30;99.90;;;;;;5131549;27;20295;-66
2023/06/03 00:31:52;;;;;;;14.47;6.80;;;12.20;99.90;;;;;;5131631;27;20417;-66
2023/06/03 00:34:18;;;;;;;9.50;6.53;;;12.20;99.90;;;;;;5131377;27;20406;-66
2023/06/03 00:36:44;;;;;;;9.90;6.87;;;12.20;99.90;;;;;;5131360;27;20774;-66
2023/06/03 00:39:10;;;;;;;14.87;7.00;;;12.10;99.90;;;;;;5131850;27;20453;-66
2023/06/03 00:41:36;;;;;;;17.63;7.60;;;12.20;99.90;;;;;;5131107;27;20437;-66
2023/06/03 00:44:01;;;;;;;14.53;8.83;;;12.10;99.90;;;;;;5112776;27;20192;-67
2023/06/03 00:46:28;;;;;;;8.73;6.60;;;12.10;99.90;;;;;;5131227;27;20421;-66
2023/06/03 00:48:53;;;;;;;10.60;6.90;;;12.00;99.90;;;;;;5131170;27;20208;-65
2023/06/03 00:51:20;;;;;;;12.00;7.40;;;12.00;99.90;;;;;;5131079;27;20403;-65
2023/06/03 00:53:46;;;;;;;21.23;8.13;;;12.00;99.90;;;;;;5130970;27;20184;-65
2023/06/03 00:56:16;;;;;;;12.13;8.60;;;12.00;99.90;;;;;;5131002;27;20418;-65
2023/06/03 00:58:42;;;;;;;17.13;7.97;;;11.70;99.90;;;;;;5130861;27;20193;-65
2023/06/03 01:01:08;;;;;;;11.93;8.23;;;11.50;99.90;;;;;;5130944;27;20402;-65
2023/06/03 01:03:36;;;;;;;13.37;6.90;;;11.50;99.90;;;;;;5130915;27;20177;-65
2023/06/03 01:06:20;;;;;;;11.87;7.30;;;11.50;99.90;;;;;;5130898;27;20506;-65
2023/06/03 01:09:13;;;;;;;11.33;7.67;;;11.50;99.90;;;;;;5112330;27;20562;-65
2023/06/03 01:12:14;;;;;;;12.43;7.43;;;11.60;99.90;;;;;;5116901;27;20507;-65
2023/06/03 01:14:49;;;;;;;12.90;7.43;;;11.60;99.90;;;;;;5130451;27;20413;-65
2023/06/03 01:17:18;;;;;;;13.00;7.40;;;11.70;99.90;;;;;;5130605;27;20400;-65
2023/06/03 01:19:50;;;;;;;9.00;6.93;;;11.70;99.90;;;;;;5130444;27;20442;-65
2023/06/03 01:22:20;;;;;;;12.30;7.50;;;11.80;99.90;;;;;;5130513;27;20467;-65
2023/06/03 01:24:51;;;;;;;11.40;7.33;;;11.70;99.90;;;;;;5130470;27;20423;-66
2023/06/03 01:27:18;;;;;;;14.47;6.77;;;11.80;99.90;;;;;;5130293;27;20447;-65
2023/06/03 01:29:45;;;;;;;17.97;7.33;;;11.50;99.90;;;;;;5130448;27;20464;-65
2023/06/03 01:32:16;;;;;;;16.83;8.10;;;11.50;99.90;;;;;;5111230;27;20499;-65
2023/06/03 01:34:42;;;;;;;14.23;7.30;;;11.40;99.90;;;;;;5130256;27;20430;-64
2023/06/03 01:37:09;;;;;;;15.43;8.03;;;11.40;99.90;;;;;;5129998;27;20843;-66
2023/06/03 01:39:39;;;;;;;14.27;7.10;;;11.40;99.90;;;;;;5130234;27;20460;-66
2023/06/03 01:42:06;;;;;;;12.63;6.70;;;11.50;99.90;;;;;;5111621;27;20840;-65
2023/06/03 01:44:32;;;;;;;9.00;6.60;;;11.50;99.90;;;;;;5130142;27;20428;-66
2023/06/03 01:46:57;;;;;;;13.83;7.50;;;11.60;99.90;;;;;;5130131;27;20422;-66
2023/06/03 01:49:24;;;;;;;12.33;7.27;;;11.60;99.90;;;;;;5111399;27;20211;-65
2023/06/03 01:51:49;;;;;;;10.20;7.00;;;11.50;99.90;;;;;;5129920;27;20193;-66
2023/06/03 01:54:15;;;;;;;11.80;6.97;;;11.60;99.90;;;;;;5130110;27;20778;-65
2023/06/03 01:56:42;;;;;;;17.73;7.53;;;11.40;99.90;;;;;;5129989;27;20180;-66
2023/06/03 01:59:07;;;;;;;19.20;7.70;;;11.50;99.90;;;;;;5129987;27;20735;-65
2023/06/03 02:01:33;;;;;;;12.60;7.67;;;11.50;99.90;;;;;;5130123;27;20424;-66
2023/06/03 02:03:59;;;;;;;12.50;7.33;;;11.40;99.90;;;;;;5111339;27;20559;-67
2023/06/03 02:06:25;;;;;;;16.93;6.97;;;11.40;99.90;;;;;;5129894;27;20185;-66
2023/06/03 02:08:51;;;;;;;12.23;6.70;;;11.50;99.90;;;;;;5129560;27;21019;-65
2023/06/03 02:11:16;;;;;;;11.73;6.60;;;11.50;99.90;;;;;;5129742;27;20208;-66
2023/06/03 02:13:42;;;;;;;13.47;7.30;;;11.40;99.90;;;;;;5129664;27;20235;-65
2023/06/03 02:16:07;;;;;;;10.60;6.97;;;11.40;99.90;;;;;;5129588;27;20180;-66
2023/06/03 02:18:34;;;;;;;17.73;7.40;;;11.40;99.90;;;;;;5129511;27;20626;-65
2023/06/03 02:21:00;;;;;;;18.43;8.60;;;11.00;99.90;;;;;;5129638;27;20184;-66
2023/06/03 02:23:26;;;;;;;9.60;7.37;;;11.00;99.90;;;;;;5093912;27;20467;-66
2023/06/03 02:25:52;;;;;;;9.93;6.83;;;11.10;99.90;;;;;;5129522;27;21076;-66
2023/06/03 02:28:17;;;;;;;11.50;7.27;;;11.10;99.90;;;;;;5129436;27;20855;-66
2023/06/03 02:30:43;;;;;;;8.60;7.30;;;11.20;99.90;;;;;;5129291;27;20641;-65
2023/06/03 02:33:09;;;;;;;13.33;7.53;;;11.20;99.90;;;;;;5129636;28;20304;-65
2023/06/03 02:35:35;;;;;;;13.53;7.27;;;11.20;99.90;;;;;;5110514;28;20938;-66
2023/06/03 02:38:00;;;;;;;22.93;7.97;;;11.20;99.90;;;;;;5129710;27;20207;-65
2023/06/03 02:40:26;;;;;;;17.40;7.23;;;11.20;99.90;;;;;;5129613;28;20184;-65
2023/06/03 02:42:52;;;;;;;13.10;7.57;;;11.20;99.90;;;;;;5129687;27;20196;-66
2023/06/03 02:45:17;;;;;;;13.43;7.67;;;11.00;99.90;;;;;;5133732;27;20238;-66
2023/06/03 02:47:43;;;;;;;13.03;7.90;;;10.70;99.90;;;;;;5133274;27;20207;-65
2023/06/03 02:50:09;;;;;;;12.50;8.10;;;10.50;99.90;;;;;;5133509;27;20655;-65
2023/06/03 02:52:35;;;;;;;15.30;9.10;;;10.30;99.90;;;;;;5133548;27;20179;-66
2023/06/03 02:55:01;;;;;;;12.77;7.83;;;10.30;99.90;;;;;;5133407;27;20414;-65
2023/06/03 02:57:27;;;;;;;11.90;7.23;;;10.30;99.90;;;;;;5133386;27;21270;-66
2023/06/03 02:59:53;;;;;;;13.03;6.93;;;10.40;99.90;;;;;;5133388;27;20410;-66
2023/06/03 03:02:21;;;;;;;15.17;8.27;;;10.50;99.90;;;;;;5133448;27;21216;-66
2023/06/03 03:04:47;;;;;;;11.80;7.43;;;10.70;99.90;;;;;;5133208;27;20179;-66
2023/06/03 03:07:12;;;;;;;11.77;7.60;;;10.80;99.90;;;;;;5133226;27;20424;-65
2023/06/03 03:09:38;;;;;;;12.63;7.10;;;10.80;99.90;;;;;;5133181;27;20248;-65
2023/06/03 03:12:04;;;;;;;13.40;7.33;;;10.80;99.90;;;;;;5133341;27;20188;-66
2023/06/03 03:14:30;;;;;;;12.53;7.63;;;10.80;99.90;;;;;;5133113;27;20598;-66
2023/06/03 03:16:56;;;;;;;23.43;7.67;;;10.80;99.90;;;;;;5133037;27;20406;-66
2023/06/03 03:19:22;;;;;;;14.63;7.23;;;10.80;99.90;;;;;;5133022;27;20905;-65
2023/06/03 03:21:47;;;;;;;19.13;7.30;;;10.80;99.90;;;;;;5133008;27;20412;-65
2023/06/03 03:24:13;;;;;;;11.13;6.57;;;10.70;99.90;;;;;;5132977;27;20188;-65
2023/06/03 03:26:39;;;;;;;13.33;7.80;;;10.50;99.90;;;;;;5132827;27;20264;-65
2023/06/03 03:29:05;;;;;;;19.83;8.00;;;10.30;99.90;;;;;;5132828;27;20202;-65
2023/06/03 03:31:32;;;;;;;12.03;7.47;;;10.20;99.90;;;;;;5132855;27;20475;-66
2023/06/03 03:33:59;;;;;;;18.67;7.80;;;10.30;99.90;;;;;;5132900;27;21193;-65
2023/06/03 03:36:28;;;;;;;17.80;6.90;;;10.30;99.90;;;;;;5132703;27;20439;-65
2023/06/03 03:39:04;;;;;;;17.50;9.07;;;10.40;99.90;;;;;;5132772;27;20434;-65
2023/06/03 03:41:31;;;;;;;13.93;8.40;;;10.40;99.90;;;;;;5132821;27;20444;-65
2023/06/03 03:43:57;;;;;;;14.73;7.97;;;10.40;99.90;;;;;;5133058;27;20798;-65
2023/06/03 03:46:23;;;;;;;11.30;8.00;;;10.30;99.90;;;;;;5133125;27;20437;-65
2023/06/03 03:48:49;;;;;;;15.53;7.70;;;10.30;99.90;;;;;;5133176;27;20461;-65
2023/06/03 03:51:14;;;;;;;10.57;7.73;;;10.30;99.90;;;;;;5133261;27;20217;-65
2023/06/03 03:53:45;;;;;;;20.00;8.73;;;10.20;99.90;;;;;;5132511;27;20262;-65
2023/06/03 03:56:17;;;;;;;19.00;7.30;;;10.10;99.90;;;;;;5133212;27;20410;-64
2023/06/03 03:58:43;;;;;;;19.60;8.33;;;10.00;99.90;;;;;;5114338;27;20874;-65
2023/06/03 04:01:12;;;;;;;12.80;7.60;;;10.10;99.90;;;;;;5133125;27;20980;-65
2023/06/03 04:03:43;;;;;;;14.67;7.50;;;10.10;99.90;;;;;;5132817;27;21189;-65
2023/06/03 04:06:14;;;;;;;16.43;7.30;;;10.30;99.90;;;;;;5132472;27;20450;-65
2023/06/03 04:08:45;;;;;;;16.27;7.50;;;10.50;99.90;;;;;;5132405;27;20458;-65
2023/06/03 04:11:22;;;;;;;12.27;6.57;;;10.70;99.90;;;;;;5132198;27;20414;-65
2023/06/03 04:13:48;;;;;;;20.97;6.47;;;10.90;99.90;;;;;;5113551;27;20397;-65
2023/06/03 04:16:51;;;;;;;12.90;7.27;;;11.10;99.90;;;;;;5131941;27;20410;-66
2023/06/03 04:19:21;;;;;;;10.53;6.53;;;11.20;99.90;;;;;;5131653;27;20447;-65
2023/06/03 04:21:47;;;;;;;16.20;7.33;;;11.30;99.90;;;;;;5131776;27;20424;-65
2023/06/03 04:24:14;;;;;;;13.17;6.73;;;11.40;99.90;;;;;;5131786;27;20416;-66
2023/06/03 04:26:41;;;;;;;12.30;6.43;;;11.40;99.90;;;;;;5131866;27;20427;-66
2023/06/03 04:29:06;;;;;;;14.77;6.60;;;11.50;99.90;;;;;;5131614;27;20518;-65
2023/06/03 04:31:32;;;;;;;12.40;6.70;;;11.50;99.90;;;;;;5131695;27;20940;-67
2023/06/03 04:33:57;;;;;;;11.27;6.83;;;11.60;99.90;;;;;;5131491;27;20182;-66
2023/06/03 04:36:23;;;;;;;15.87;7.10;;;11.60;99.90;;;;;;5131480;27;20244;-66
2023/06/03 04:38:49;;;;;;;11.17;6.80;;;11.50;99.90;;;;;;5131247;27;20583;-65
2023/06/03 04:41:15;;;;;;;16.87;6.73;;;11.70;99.90;;;;;;5131264;27;20186;-66
2023/06/03 04:43:43;;;;;;;19.63;6.47;;;11.70;99.90;;;;;;5131243;27;20185;-66
2023/06/03 04:46:09;;;;;;;13.23;7.13;;;11.80;99.90;;;;;;5131407;27;20421;-65
2023/06/03 04:48:36;;;;;;;8.67;6.23;;;11.90;99.90;;;;;;5131095;27;20466;-65
2023/06/03 04:51:06;;;;;;;11.70;6.37;;;12.20;99.90;;;;;;5131381;27;20423;-65
2023/06/03 04:53:32;;;;;;;14.00;6.97;;;12.10;99.90;;;;;;5131329;27;20584;-66
2023/06/03 04:55:58;;;;;;;11.30;6.40;;;12.30;99.90;;;;;;5131228;27;20914;-65
2023/06/03 04:58:24;;;;;;;10.43;6.30;;;12.40;99.90;;;;;;5130907;27;20254;-65
2023/06/03 05:00:49;;;;;;;18.27;6.80;;;12.50;99.90;;;;;;5131152;27;20177;-65
2023/06/03 05:03:16;;;;;;;15.17;6.27;;;12.50;99.90;;;;;;5131151;27;20470;-65
2023/06/03 05:05:43;;;;;;;11.60;6.30;;;12.70;99.90;;;;;;5112015;28;20561;-66
2023/06/03 05:08:12;;;;;;;13.50;6.60;;;12.90;99.90;;;;;;5130967;27;20466;-65
2023/06/03 05:10:38;;;;;;;10.90;6.10;;;13.00;99.90;;;;;;5130830;27;20411;-65
2023/06/03 05:13:08;;;;;;;14.33;6.43;;;13.10;99.90;;;;;;5130732;27;20418;-65
2023/06/03 05:15:37;;;;;;;12.73;6.50;;;13.10;99.90;;;;;;5130644;27;20911;-66
2023/06/03 05:18:02;;;;;;;15.10;6.73;;;13.30;99.90;;;;;;5130794;27;20541;-66
2023/06/03 05:20:30;;;;;;;9.63;6.17;;;13.30;99.90;;;;;;5130859;27;20611;-66
2023/06/03 05:22:55;;;;;;;13.03;7.03;;;13.40;99.90;;;;;;5130848;27;20214;-66
2023/06/03 05:25:22;;;;;;;11.00;6.30;;;13.50;99.90;;;;;;5130612;27;20406;-66
2023/06/03 05:27:48;;;;;;;17.13;6.80;;;13.60;99.90;;;;;;5130483;27;20220;-66
2023/06/03 05:30:14;;;;;;;18.23;6.97;;;13.70;99.90;;;;;;5130762;27;20507;-65
2023/06/03 05:32:41;;;;;;;11.23;6.37;;;13.80;99.90;;;;;;5130917;27;20415;-66
2023/06/03 05:35:08;;;;;;;13.80;6.63;;;13.90;99.90;;;;;;5131041;27;20186;-66
2023/06/03 05:37:33;;;;;;;12.47;6.57;;;14.00;99.90;;;;;;5112356;27;20438;-64
2023/06/03 05:39:59;;;;;;;15.93;5.67;;;14.10;99.90;;;;;;5131028;27;20427;-65
2023/06/03 05:42:24;;;;;;;11.10;4.90;;;14.20;99.90;;;;;;5130924;27;20280;-64
2023/06/03 05:44:50;;;;;;;11.00;5.60;;;14.50;99.90;;;;;;5130987;27;20210;-64
2023/06/03 05:47:15;;;;;;;15.90;6.23;;;14.60;99.90;;;;;;5130859;27;20314;-65
2023/06/03 05:49:41;;;;;;;12.77;5.80;;;14.60;99.90;;;;;;5130881;27;20207;-65
2023/06/03 05:52:07;;;;;;;13.20;6.33;;;14.70;99.90;;;;;;5130880;27;20699;-64
2023/06/03 05:54:32;;;;;;;14.27;6.40;;;14.80;99.90;;;;;;5130593;27;20177;-64
2023/06/03 05:56:58;;;;;;;12.07;6.37;;;14.90;99.90;;;;;;5130512;27;20180;-65
2023/06/03 05:59:24;;;;;;;15.23;6.77;;;15.00;99.90;;;;;;5130290;27;20209;-64
2023/06/03 06:01:50;;;;;;;10.43;5.23;;;15.00;99.90;;;;;;5111667;27;20177;-65
2023/06/03 06:04:16;;;;;;;11.10;6.00;;;15.10;99.90;;;;;;5130055;27;20179;-64
2023/06/03 06:06:41;;;;;;;18.93;6.77;;;15.30;99.90;;;;;;5129748;27;20193;-66
2023/06/03 06:09:07;;;;;;;20.30;6.33;;;15.30;99.90;;;;;;5129541;27;20220;-64
2023/06/03 06:11:33;;;;;;;13.20;6.43;;;15.50;99.90;;;;;;5111442;27;20212;-64
2023/06/03 06:13:59;;;;;;;17.73;7.17;;;15.60;99.90;;;;;;5129646;27;20282;-63
2023/06/03 06:16:24;;;;;;;11.20;6.10;;;15.60;99.90;;;;;;5129680;27;20423;-65
2023/06/03 06:18:50;;;;;;;10.60;6.37;;;15.70;99.90;;;;;;5129254;27;20525;-65
2023/06/03 06:21:16;;;;;;;13.47;6.60;;;15.80;99.90;;;;;;5129584;27;20193;-65
2023/06/03 06:23:43;;;;;;;12.17;6.40;;;15.90;99.90;;;;;;5129471;27;20179;-64
2023/06/03 06:26:09;;;;;;;16.23;6.43;;;15.90;99.90;;;;;;5129840;27;20181;-65
2023/06/03 06:28:34;;;;;;;13.20;5.93;;;16.00;99.90;;;;;;5129720;27;20460;-65
2023/06/03 06:31:04;;;;;;;12.23;6.80;;;16.20;99.90;;;;;;5129478;27;20426;-65
2023/06/03 06:33:30;;;;;;;16.93;6.57;;;16.30;99.90;;;;;;5110644;28;20189;-65
2023/06/03 06:35:56;;;;;;;17.63;7.10;;;16.30;99.90;;;;;;5129428;28;20444;-65
2023/06/03 06:38:21;;;;;;;9.67;5.70;;;16.40;99.90;;;;;;5129344;27;20472;-65
2023/06/03 06:40:50;;;;;;;8.13;6.27;;;16.50;99.90;;;;;;5129341;28;20653;-67
2023/06/03 06:43:18;;;;;;;15.77;5.80;;;16.60;99.90;;;;;;5129209;28;20243;-65
2023/06/03 06:45:44;;;;;;;8.90;6.13;;;16.70;99.90;;;;;;5129284;28;20428;-65
2023/06/03 06:48:12;;;;;;;12.10;6.40;;;16.80;99.90;;;;;;5129072;27;20996;-65
2023/06/03 06:50:59;;;;;;;18.80;6.77;;;16.80;99.90;;;;;;5129180;28;20184;-65
2023/06/03 06:53:27;;;;;;;12.60;6.50;;;16.80;99.90;;;;;;5129133;28;20857;-65
2023/06/03 06:55:59;;;;;;;14.17;6.70;;;16.90;99.90;;;;;;5129163;28;20849;-65
2023/06/03 06:58:30;;;;;;;12.07;6.27;;;17.00;99.90;;;;;;5129130;27;20433;-65
2023/06/03 07:00:58;;;;;;;11.70;5.87;;;17.10;99.90;;;;;;5129761;28;20445;-65
2023/06/03 07:03:24;;;;;;;14.63;6.50;;;17.20;99.90;;;;;;5129190;28;20506;-66
2023/06/03 07:05:53;;;;;;;9.40;6.00;;;17.30;99.90;;;;;;5129070;27;20463;-65
2023/06/03 07:08:21;;;;;;;9.80;5.40;;;17.50;99.90;;;;;;5128708;27;20738;-66
2023/06/03 07:10:46;;;;;;;14.47;6.67;;;17.50;99.90;;;;;;5129010;28;20554;-65
2023/06/03 07:13:15;;;;;;;9.37;5.47;;;17.60;99.90;;;;;;5128906;27;20521;-65
2023/06/03 07:15:41;;;;;;;9.60;6.33;;;17.60;99.90;;;;;;5129022;27;20202;-65
2023/06/03 07:18:09;;;;;;;16.80;5.70;;;17.70;99.90;;;;;;5128950;27;20937;-65
2023/06/03 07:20:39;;;;;;;12.20;6.03;;;17.80;99.90;;;;;;5129070;28;20940;-65
2023/06/03 07:23:10;;;;;;;20.53;6.00;;;17.90;99.90;;;;;;5110051;28;20641;-65
2023/06/03 07:25:39;;;;;;;13.27;6.20;;;17.90;99.90;;;;;;5128736;27;20510;-65
2023/06/03 07:28:15;;;;;;;16.10;6.03;;;18.10;99.90;;;;;;5128978;27;20464;-65
2023/06/03 07:30:42;;;;;;;13.13;5.77;;;18.20;99.90;;;;;;5132104;27;20442;-66
2023/06/03 07:33:24;;;;;;;12.23;5.60;;;18.20;99.90;;;;;;5114104;27;20423;-65
2023/06/03 07:35:58;;;;;;;9.13;5.40;;;18.20;99.90;;;;;;5132589;27;20410;-66
2023/06/03 07:38:55;;;;;;;13.47;5.60;;;18.20;99.90;;;;;;5132538;27;20494;-66
2023/06/03 07:41:41;;;;;;;12.40;4.63;;;18.20;99.90;;;;;;5132443;27;20451;-65
2023/06/03 07:44:12;;;;;;;18.80;6.17;;;18.30;99.90;;;;;;5132926;27;20409;-65
2023/06/03 07:46:48;;;;;;;16.37;6.00;;;18.40;99.90;;;;;;5132685;27;20406;-65
2023/06/03 07:49:16;;;;;;;14.60;5.33;;;18.60;99.90;;;;;;5132947;27;20982;-65
2023/06/03 07:51:45;;;;;;;13.27;5.63;;;18.70;99.90;;;;;;5133061;27;20514;-64
2023/06/03 07:54:11;;;;;;;14.07;5.40;;;18.70;99.90;;;;;;5133166;27;20903;-65
2023/06/03 07:56:37;;;;;;;11.57;4.93;;;18.80;99.90;;;;;;5133253;27;20775;-65
2023/06/03 07:59:08;;;;;;;9.90;4.70;;;19.10;99.90;;;;;;5132906;27;20440;-65
2023/06/03 08:01:35;;;;;;;9.47;5.57;;;19.10;99.90;;;;;;5132837;27;20414;-66
2023/06/03 08:04:22;;;;;;;15.23;6.30;;;19.20;99.90;;;;;;5132869;27;20407;-66
2023/06/03 08:06:52;;;;;;;11.60;6.07;;;19.30;99.90;;;;;;5114657;27;20484;-65
2023/06/03 08:09:22;;;;;;;11.20;5.90;;;19.30;99.90;;;;;;5132523;27;20493;-66
2023/06/03 08:11:48;;;;;;;13.80;5.80;;;19.40;99.90;;;;;;5132019;27;20903;-65
2023/06/03 08:14:13;;;;;;;22.70;5.43;;;19.60;99.90;;;;;;5132267;27;20411;-65
2023/06/03 08:16:39;;;;;;;12.50;5.27;;;19.60;99.90;;;;;;5132120;27;20956;-66
2023/06/03 08:19:07;;;;;;;19.63;5.70;;;19.80;99.10;;;;;;5131771;27;20249;-66
2023/06/03 08:21:33;;;;;;;9.77;6.10;;;19.90;99.50;;;;;;5131889;27;20181;-65
2023/06/03 08:24:00;;;;;;;17.90;6.20;;;20.00;97.40;;;;;;5131903;27;20421;-66
2023/06/03 08:26:26;;;;;;;15.63;5.67;;;20.10;98.30;;;;;;5131798;27;20425;-65
2023/06/03 08:28:52;;;;;;;7.50;5.10;;;20.30;97.30;;;;;;5131634;27;20470;-65
2023/06/03 08:31:18;;;;;;;12.47;6.20;;;20.30;96.50;;;;;;5131590;27;20531;-65
2023/06/03 08:33:43;;;;;;;17.60;5.43;;;20.40;97.00;;;;;;5131697;27;20510;-65
2023/06/03 08:36:11;;;;;;;12.20;5.80;;;20.50;95.90;;;;;;5131646;27;20925;-65
2023/06/03 08:38:40;;;;;;;10.07;5.90;;;20.70;95.60;;;;;;5131607;27;20749;-65
2023/06/03 08:41:06;;;;;;;10.53;5.30;;;20.90;95.20;;;;;;5131372;27;20525;-66
2023/06/03 08:44:01;;;;;;;9.03;5.60;;;21.00;95.40;;;;;;5112782;27;20422;-65
2023/06/03 08:46:34;;;;;;;7.27;4.90;;;21.40;95.80;;;;;;5094068;27;20445;-65
2023/06/03 08:49:04;;;;;;;16.70;6.17;;;21.70;95.20;;;;;;5131292;27;20554;-65
2023/06/03 08:51:43;;;;;;;11.83;5.57;;;21.70;92.20;;;;;;5131031;27;20539;-65
2023/06/03 08:54:17;;;;;;;8.93;4.87;;;21.80;93.10;;;;;;5131419;27;20410;-66
2023/06/03 08:56:47;;;;;;;15.87;6.03;;;22.10;92.80;;;;;;5131397;27;20891;-66
2023/06/03 08:59:18;;;;;;;16.13;5.13;;;22.30;93.30;;;;;;5131047;27;20441;-66
2023/06/03 09:01:46;;;;;;;17.37;6.10;;;22.50;92.30;;;;;;5131066;27;20414;-65
2023/06/03 09:04:14;;;;;;;14.60;5.60;;;22.70;91.40;;;;;;5131020;27;20500;-65
2023/06/03 09:06:43;;;;;;;12.33;5.60;;;22.80;91.10;;;;;;5131041;27;20414;-65
2023/06/03 09:09:10;;;;;;;12.77;5.00;;;23.00;92.00;;;;;;5130655;27;20474;-66
2023/06/03 09:11:37;;;;;;;9.60;5.20;;;23.10;90.40;;;;;;5130780;27;20985;-65
2023/06/03 09:14:04;;;;;;;8.00;5.13;;;23.40;90.10;;;;;;5130731;27;20419;-66
2023/06/03 09:16:32;;;;;;;13.73;5.20;;;23.70;89.60;;;;;;5130778;27;20533;-66
2023/06/03 09:18:58;;;;;;;11.67;5.50;;;23.90;88.70;;;;;;5130528;27;20541;-66
2023/06/03 09:21:23;;;;;;;11.53;5.40;;;24.00;86.40;;;;;;5130630;27;20941;-66
2023/06/03 09:23:51;;;;;;;8.67;5.00;;;24.30;87.80;;;;;;5130885;27;20207;-66
2023/06/03 09:26:17;;;;;;;12.60;5.40;;;24.40;86.10;;;;;;5130944;27;20558;-66
2023/06/03 09:28:44;;;;;;;12.30;6.10;;;24.50;85.90;;;;;;5130353;27;20469;-66
2023/06/03 09:31:10;;;;;;;10.93;5.50;;;24.60;85.90;;;;;;5130279;27;20512;-67
2023/06/03 09:33:36;;;;;;;15.90;5.80;;;24.80;84.50;;;;;;5130511;27;20505;-64
2023/06/03 09:36:13;;;;;;;9.37;5.10;;;25.10;83.70;;;;;;5130518;27;20184;-66
2023/06/03 09:38:56;;;;;;;8.57;5.10;;;25.20;81.90;;;;;;5130411;27;20893;-66
2023/06/03 09:41:25;;;;;;;12.67;6.00;;;25.10;81.20;;;;;;5130670;27;20441;-66
2023/06/03 09:43:54;;;;;;;12.53;6.10;;;25.40;81.90;;;;;;5112184;27;20840;-67
2023/06/03 09:46:20;;;;;;;10.10;6.07;;;25.40;82.50;;;;;;5130822;27;20413;-65
2023/06/03 09:48:47;;;;;;;11.87;5.13;;;25.60;81.50;;;;;;5130671;27;20531;-66
2023/06/03 09:51:12;;;;;;;11.87;5.70;;;26.10;81.70;;;;;;5130925;27;20446;-66
2023/06/03 09:53:39;;;;;;;8.07;5.20;;;26.20;79.10;;;;;;5130438;27;20418;-66
2023/06/03 09:56:26;;;;;;;9.50;5.50;;;26.20;80.20;;;;;;5130805;27;20188;-66
2023/06/03 09:59:13;;;;;;;15.60;5.43;;;26.50;77.70;;;;;;5130634;27;20939;-66
2023/06/03 10:01:39;;;;;;;14.63;6.07;;;26.70;77.50;;;;;;5130706;27;20421;-66
2023/06/03 10:04:04;;;;;;;11.90;5.80;;;26.90;77.80;;;;;;5130704;27;20418;-66
2023/06/03 10:06:30;;;;;;;13.87;5.83;;;26.90;75.60;;;;;;5130514;27;20483;-66
2023/06/03 10:08:56;;;;;;;9.30;5.77;;;27.00;76.40;;;;;;5130181;27;20219;-65
2023/06/03 10:11:23;;;;;;;11.33;6.23;;;27.00;77.60;;;;;;5130143;27;20187;-66
2023/06/03 10:14:03;;;;;;;14.63;5.97;;;27.10;76.30;;;;;;5130040;27;20431;-66
2023/06/03 10:16:29;;;;;;;10.23;6.07;;;27.40;75.40;;;;;;5129855;27;20500;-66
2023/06/03 10:18:54;;;;;;;9.50;6.17;;;27.30;73.70;;;;;;5129830;27;21084;-66
2023/06/03 10:21:21;;;;;;;10.00;5.77;;;27.40;77.10;;;;;;5129982;27;20714;-66
2023/06/03 10:23:48;;;;;;;8.60;5.40;;;27.50;75.70;;;;;;5129702;27;20191;-66
2023/06/03 10:26:16;;;;;;;7.90;5.00;;;27.70;74.40;;;;;;5129649;27;20425;-65
2023/06/03 10:28:43;;;;;;;8.17;6.20;;;27.90;74.90;;;;;;5129326;27;20470;-66
2023/06/03 10:31:12;;;;;;;11.40;6.17;;;27.30;74.10;;;;;;5129596;27;20417;-66
2023/06/03 10:33:39;;;;;;;11.90;5.60;;;26.90;76.50;;;;;;5110716;28;20430;-65
2023/06/03 10:36:06;;;;;;;9.87;5.83;;;26.30;77.10;;;;;;5129355;27;20422;-64
2023/06/03 10:38:32;;;;;;;8.77;5.77;;;25.90;77.40;;;;;;5111811;28;20446;-66
2023/06/03 10:41:00;;;;;;;9.67;5.90;;;26.10;79.60;;;;;;5129110;28;20422;-65
2023/06/03 10:43:30;;;;;;;7.20;6.00;;;26.50;76.90;;;;;;5110698;28;21002;-67
2023/06/03 10:45:57;;;;;;;11.93;5.77;;;26.90;76.30;;;;;;5129096;28;20421;-66
2023/06/03 10:48:25;;;;;;;13.80;6.77;;;26.80;75.40;;;;;;5128973;27;20473;-66
2023/06/03 10:51:23;;;;;;;7.13;5.30;;;26.20;76.70;;;;;;5129063;28;20910;-66
2023/06/03 10:53:48;;;;;;;12.07;6.50;;;26.40;76.50;;;;;;5110370;28;20969;-66
2023/06/03 10:56:32;;;;;;;9.10;6.07;;;27.10;77.10;;;;;;5110485;28;20423;-66
2023/06/03 10:59:03;;;;;;;10.60;5.53;;;27.50;76.00;;;;;;5129127;27;20668;-65
2023/06/03 11:01:58;;;;;;;8.17;6.00;;;28.00;73.20;;;;;;5129135;28;20890;-66
2023/06/03 11:04:25;;;;;;;15.00;5.63;;;28.20;74.00;;;;;;5130392;27;20476;-65
2023/06/03 11:06:50;;;;;;;9.10;5.83;;;28.10;70.90;;;;;;5133439;27;20414;-64
2023/06/03 11:09:30;;;;;;;6.80;5.97;;;28.10;72.00;;;;;;5133115;27;20465;-67
2023/06/03 11:12:06;;;;;;;9.30;6.23;;;27.60;72.20;;;;;;5133357;27;20188;-66
2023/06/03 11:14:40;;;;;;;10.90;5.90;;;27.40;72.40;;;;;;5133305;27;20554;-67
2023/06/03 11:17:06;;;;;;;13.23;6.80;;;27.20;73.20;;;;;;5133357;27;20854;-67
2023/06/03 11:19:54;;;;;;;10.07;5.53;;;27.00;71.80;;;;;;5114308;27;20529;-66
2023/06/03 11:22:31;;;;;;;8.13;5.77;;;26.90;72.60;;;;;;5133102;27;20450;-68
2023/06/03 11:25:00;;;;;;;8.80;6.67;;;27.00;72.40;;;;;;5132811;27;20479;-68
2023/06/03 11:27:28;;;;;;;10.60;5.70;;;26.90;72.10;;;;;;5132986;27;20503;-68
2023/06/03 11:30:02;;;;;;;12.97;5.70;;;26.60;72.90;;;;;;5132718;27;20550;-67
2023/06/03 11:32:36;;;;;;;11.87;6.03;;;26.40;73.30;;;;;;5133022;27;20455;-68
2023/06/03 11:35:04;;;;;;;8.73;6.23;;;26.40;74.10;;;;;;5132663;27;20460;-68
2023/06/03 11:37:43;;;;;;;12.17;5.23;;;26.50;72.60;;;;;;5132715;27;20922;-68
2023/06/03 11:40:19;;;;;;;9.00;5.67;;;26.60;72.60;;;;;;5113931;27;20426;-66
2023/06/03 11:42:48;;;;;;;7.70;5.47;;;26.80;71.30;;;;;;5132597;27;20434;-69
2023/06/03 11:45:26;;;;;;;8.60;5.67;;;27.00;70.90;;;;;;5132452;27;20418;-68
2023/06/03 11:47:56;;;;;;;16.27;6.77;;;27.00;70.30;;;;;;5132316;27;20486;-69
2023/06/03 11:50:26;;;;;;;9.10;6.57;;;27.00;71.00;;;;;;5132393;27;20414;-67
2023/06/03 11:52:52;;;;;;;8.00;5.87;;;27.00;69.70;;;;;;5132758;27;20415;-68
2023/06/03 11:55:31;;;;;;;6.67;5.80;;;26.90;70.80;;;;;;5132368;27;21214;-69
2023/06/03 11:58:11;;;;;;;8.63;5.90;;;26.90;71.50;;;;;;5132317;27;20280;-67
2023/06/03 12:00:40;;;;;;;10.80;6.53;;;26.80;73.30;;;;;;5132328;27;21010;-68
2023/06/03 12:03:12;;;;;;;6.60;5.80;;;26.70;72.90;;;;;;5132314;27;20472;-67
2023/06/03 12:05:52;;;;;;;6.47;5.27;;;26.70;74.10;;;;;;5132157;27;20506;-68
2023/06/03 12:08:18;;;;;;;8.67;5.17;;;26.30;71.60;;;;;;5132041;27;20468;-70
2023/06/03 12:10:43;;;;;;;7.50;6.10;;;26.10;72.40;;;;;;5132124;27;20423;-68
2023/06/03 12:13:09;;;;;;;9.20;5.43;;;26.00;72.50;;;;;;5132247;27;20185;-67
2023/06/03 12:15:36;;;;;;;11.23;6.37;;;26.00;71.00;;;;;;5132070;27;20237;-66
2023/06/03 12:18:05;;;;;;;13.60;5.97;;;25.80;72.60;;;;;;5132228;27;20449;-66
2023/06/03 12:20:30;;;;;;;10.67;5.73;;;25.80;72.10;;;;;;5132424;27;20415;-66
2023/06/03 12:23:03;;;;;;;8.83;5.73;;;25.80;71.20;;;;;;5132358;27;20497;-66
2023/06/03 12:25:29;;;;;;;9.63;5.97;;;25.70;73.10;;;;;;5113619;27;20280;-66
2023/06/03 12:27:56;;;;;;;8.50;5.77;;;25.80;71.90;;;;;;5132201;27;20481;-66
2023/06/03 12:30:29;;;;;;;6.20;5.30;;;25.70;71.10;;;;;;5132276;27;20430;-66
2023/06/03 12:32:57;;;;;;;7.87;5.90;;;25.70;71.40;;;;;;5132337;27;20832;-66
2023/06/03 12:35:25;;;;;;;8.03;5.57;;;25.60;70.00;;;;;;5132410;27;20419;-66
2023/06/03 12:38:04;;;;;;;8.93;6.17;;;25.40;71.70;;;;;;5132260;27;20438;-66
2023/06/03 12:40:29;;;;;;;10.70;5.60;;;25.20;70.70;;;;;;5132389;27;20427;-66
2023/06/03 12:42:56;;;;;;;9.07;5.43;;;25.20;69.70;;;;;;5132227;27;20850;-66
2023/06/03 12:45:24;;;;;;;7.87;5.80;;;25.40;71.20;;;;;;5132219;27;20237;-66